Terminal Aerodrome Forecast
Issued by NWS

Current Version | Previous Version | Text Only | Print | Product List | Glossary On
Versions: 1 2 3 4 5 6 7 8 9 10 11 12
000
FTUS43 KMPX 021720
TAFRWF
TAF
KRWF 021720Z 0218/0318 17020G28KT P6SM BKN150
     FM030200 16015G22KT P6SM BKN050
     FM030700 17012KT P6SM VCTS OVC040CB
     FM031200 18010KT P6SM OVC015
      TEMPO 0314/0318 5SM -TSRA BKN015CB OVC035=

USA.gov is the U.S. government's official web portal to all federal, state and local government web resources and services.